Escanaba, MI

12:21 AM EDT on April 22, 2015 (GMT -0400)
Sawyer International | | Change Station
CLOSE
Current Station
Airport
Location: Gwinn,
Elevation: 1220 ft
Nearby Weather Stations

Elev 1220 ft 46.34 °N, 87.40 °W | Updated 4 minutes ago

Clear
Clear
28 °F
Feels Like 20 °F
N
9
Wind Variable Wind from WNW

Today
High -- | Low -- °F
--% Chance of Precip.
Yesterday
High -- | Low -- °F
Precip. -- in
6:50 AM 8:43 PM
Waxing Crescent, 15% visible
Pressure 29.49 in
Visibility 10.0 miles
Clouds Scattered Clouds 2000 ft
Scattered Clouds 4300 ft
Mostly Cloudy 5000 ft
Windchill 20 °F
Dew Point 24 °F
Humidity 85%
Rainfall 0.00 in
Snow Depth Not available.
UV 0 out of 12
Pollen 8.10 out of 12
Air Quality Not available.
Flu Activity Regional
METAR KSAW 220417Z AUTO 29008KT 10SM SCT020 SCT043 BKN050 M02/M04 A2949 RMK AO2 T10211043

More Conditions Fewer Conditions

Pressure 29.49 in
Visibility 10.0 miles
Clouds Scattered Clouds 2000 ft
Scattered Clouds 4300 ft
Mostly Cloudy 5000 ft
Windchill 20 °F
Dew Point 24 °F
Humidity 85%
Rainfall 0.00 in
Snow Depth Not available.
UV 0 out of 12
Pollen 8.10 out of 12
Air Quality Not available.
Flu Activity Regional
METAR KSAW 220417Z AUTO 29008KT 10SM SCT020 SCT043 BKN050 M02/M04 A2949 RMK AO2 T10211043

More Conditions Fewer Conditions

10-Day Weather Forecast

Almanac

Astronomy

Apr. 22, 2015 Rise Set
Actual Time
Civil Twilight
Nautical Twilight
Astronomical Twilight
Moon
Length of Visible Light
Length of Day
Tomorrow will be .
, % of the Moon is Illuminated

Today's Extremes

State Highs State Lows

Community

WunderPhotos

Upload Photos

1,815,667 photos uploaded!

WunderBlogs® & News

Nearby

Air Quality

  Air Quality AQ Index Pollutant
Not available.

Snow Depth

Station Depth Elevation

Earthquake Activity

City Distance Mag. Time & Date
Minimum magnitude displayed is 2.5.

Coastal Water Temperatures

Place Temperature

Stations

Nearby Weather Stations

Station Location Temp. Windchill Dew Point Humidity Wind Precip. Elev Updated Type